This is the latest recevied weather packets stored in our database for station/object K6CED. If no packets are shown the sender has not sent any weather packets the latest 10 day(s).
| Time | Temp. | Humidity | Pressure | Rain* | Wind** | Luminosity | Snow |
|---|---|---|---|---|---|---|---|
| 1777482916 | 20° C | 53% | 1019 hPa | 0 mm | - | 742 W/m² | - |
| 1777482612 | 18.89° C | 56% | 1019 hPa | 0 mm | - | 730 W/m² | - |
| 1777482309 | 18.89° C | 55% | 1019.3 hPa | 0 mm | - | 718 W/m² | - |
| 1777482007 | 18.89° C | 56% | 1019.2 hPa | 0 mm | - | 703 W/m² | - |
| 1777481704 | 18.89° C | 57% | 1019 hPa | 0 mm | - | 690 W/m² | - |
| 1777481401 | 17.78° C | 59% | 1019.3 hPa | 0 mm | - | 675 W/m² | - |
| 1777481097 | 18.33° C | 56% | 1019.4 hPa | 0 mm | - | 661 W/m² | - |
| 1777480794 | 17.78° C | 60% | 1019.4 hPa | 0 mm | - | 643 W/m² | - |
| 1777480491 | 16.67° C | 62% | 1019.3 hPa | 0 mm | - | 633 W/m² | - |
| 1777480188 | 16.67° C | 63% | 1019.5 hPa | 0 mm | - | 308 W/m² | - |
| 1777479884 | 17.22° C | 62% | 1019.4 hPa | 0 mm | - | 597 W/m² | - |
| 1777479580 | 16.67° C | 64% | 1019.4 hPa | 0 mm | - | 581 W/m² | - |
| 1777479278 | 15.56° C | 67% | 1019.4 hPa | 0 mm | - | 563 W/m² | - |
| 1777478975 | 15.56° C | 68% | 1019.3 hPa | 0 mm | - | 545 W/m² | - |
| 1777478671 | 16.11° C | 67% | 1019.4 hPa | 0 mm | - | 527 W/m² | - |
| 1777478368 | 15° C | 70% | 1019.7 hPa | 0 mm | - | 487 W/m² | - |
| 1777478065 | 15° C | 69% | 1019.5 hPa | 0 mm | - | 478 W/m² | - |
| 1777477760 | 15° C | 70% | 1019.7 hPa | 0 mm | - | 477 W/m² | - |
| 1777477457 | 13.89° C | 72% | 1019.5 hPa | 0 mm | - | 488 W/m² | - |
| 1777477154 | 13.89° C | 73% | 1019.7 hPa | 0 mm | - | 469 W/m² | - |
| 1777476850 | 14.44° C | 72% | 1019.9 hPa | 0 mm | - | 401 W/m² | - |
| 1777476548 | 13.33° C | 74% | 1019.9 hPa | 0 mm | - | 339 W/m² | - |
| 1777476244 | 12.78° C | 76% | 1019.8 hPa | 0 mm | - | 306 W/m² | - |
| 1777475939 | 12.78° C | 75% | 1019.8 hPa | 0 mm | - | 284 W/m² | - |
| 1777475636 | 13.89° C | 73% | 1020.2 hPa | 0 mm | - | 261 W/m² | - |
* Rain latest hour (hover to see other rain measurements)
** Current wind speed in m/s (hover to see current wind gust speed)